Time;durP1;ratioP1;P1;durP2;ratioP2;P2;SDS_P1;SDS_P2;PMS_P1;PMS_P2;Temp;Humidity;BMP_temperature;BMP_pressure;BME280_temperature;BME280_humidity;BME280_pressure;Samples;Min_cycle;Max_cycle;Signal;HPM_P1;HPM_P2
2022/11/20 00:01:05;;;;;;;;;;;;;;;;;;4954435;29;19914;-80
2022/11/20 00:03:31;;;;;;;;;;;;;;;;;;4954917;29;20370;-81
2022/11/20 00:05:56;;;;;;;;;;;;;;;;;;4955790;29;20005;-79
2022/11/20 00:08:21;;;;;;;;;;;;;;;;;;4954565;29;19914;-80
2022/11/20 00:10:47;;;;;;;;;;;;;;;;;;4954614;29;19982;-80
2022/11/20 00:13:12;;;;;;;;;;;;;;;;;;4955170;29;20438;-80
2022/11/20 00:15:38;;;;;;;;;;;;;;;;;;4955099;29;19921;-80
2022/11/20 00:18:03;;;;;;;;;;;;;;;;;;4956959;29;19922;-80
2022/11/20 00:20:28;;;;;;;;;;;;;;;;;;4956727;29;19918;-78
2022/11/20 00:22:54;;;;;;;;;;;;;;;;;;4957391;29;19922;-79
2022/11/20 00:25:19;;;;;;;;;;;;;;;;;;4958267;29;19919;-79
2022/11/20 00:27:44;;;;;;;;;;;;;;;;;;4955910;29;19915;-79
2022/11/20 00:30:10;;;;;;;;;;;;;;;;;;4955837;29;19925;-80
2022/11/20 00:32:35;;;;;;;;;;;;;;;;;;4957405;28;20216;-80
2022/11/20 00:35:01;;;;;;;;;;;;;;;;;;4960951;29;19914;-80
2022/11/20 00:37:26;;;;;;;;;;;;;;;;;;4961678;29;19969;-79
2022/11/20 00:39:51;;;;;;;;;;;;;;;;;;4961832;29;20416;-79
2022/11/20 00:42:17;;;;;;;;;;;;;;;;;;4961305;29;19918;-79
2022/11/20 00:44:42;;;;;;;;;;;;;;;;;;4959558;29;19914;-79
2022/11/20 00:47:07;;;;;;;;;;;;;;;;;;4958788;29;19949;-79
2022/11/20 00:49:33;;;;;;;;;;;;;;;;;;4958093;29;20359;-79
2022/11/20 00:51:58;;;;;;;;;;;;;;;;;;4959049;29;19915;-80
2022/11/20 00:54:24;;;;;;;;;;;;;;;;;;4958144;29;19918;-78
2022/11/20 00:56:49;;;;;;;;;;;;;;;;;;4958652;29;20001;-79
2022/11/20 00:59:14;;;;;;;;;;;;;;;;;;4958982;29;19914;-79
2022/11/20 01:01:40;;;;;;;;;;;;;;;;;;4956555;29;19956;-80
2022/11/20 01:04:05;;;;;;;;;;;;;;;;;;4957215;29;20370;-79
2022/11/20 01:06:31;;;;;;;;;;;;;;;;;;4956117;29;19915;-80
2022/11/20 01:08:56;;;;;;;;;;;;;;;;;;4957663;29;19921;-78
2022/11/20 01:11:21;;;;;;;;;;;;;;;;;;4957548;29;19942;-79
2022/11/20 01:13:47;;;;;;;;;;;;;;;;;;4940027;29;19918;-80
2022/11/20 01:16:12;;;;;;;;;;;;;;;;;;4956123;29;19915;-80
2022/11/20 01:18:37;;;;;;;;;;;;;;;;;;4940005;29;19914;-79
2022/11/20 01:21:03;;;;;;;;;;;;;;;;;;4956244;29;19914;-79
2022/11/20 01:23:28;;;;;;;;;;;;;;;;;;4957140;29;19919;-79
2022/11/20 01:25:54;;;;;;;;;;;;;;;;;;4957235;29;19918;-80
2022/11/20 01:28:19;;;;;;;;;;;;;;;;;;4958985;29;20374;-78
2022/11/20 01:30:44;;;;;;;;;;;;;;;;;;4959971;29;19956;-80
2022/11/20 01:33:10;;;;;;;;;;;;;;;;;;4955576;29;19923;-80
2022/11/20 01:35:35;;;;;;;;;;;;;;;;;;4956569;29;19922;-79
2022/11/20 01:38:00;;;;;;;;;;;;;;;;;;4956729;29;19915;-79
2022/11/20 01:40:26;;;;;;;;;;;;;;;;;;4955758;29;20282;-80
2022/11/20 01:45:35;;;;;;;;;;;;;;;;;;4956592;28;19915;-80
2022/11/20 01:48:01;;;;;;;;;;;;;;;;;;4956708;29;19918;-78
2022/11/20 01:50:26;;;;;;;;;;;;;;;;;;4956449;29;20001;-79
2022/11/20 01:52:52;;;;;;;;;;;;;;;;;;4939323;29;19926;-79
2022/11/20 01:55:17;;;;;;;;;;;;;;;;;;4956675;29;19915;-79
2022/11/20 01:57:42;;;;;;;;;;;;;;;;;;4955559;29;19914;-79
2022/11/20 02:00:08;;;;;;;;;;;;;;;;;;4956692;29;19919;-78
2022/11/20 02:02:39;;;;;;;;;;;;;;;;;;4956642;29;19914;-78
2022/11/20 02:05:05;;;;;;;;;;;;;;;;;;4956253;29;20259;-79
2022/11/20 02:07:30;;;;;;;;;;;;;;;;;;4956762;29;20017;-79
2022/11/20 02:09:55;;;;;;;;;;;;;;;;;;4962224;29;19921;-80
2022/11/20 02:15:04;;;;;;;;;;;;;;;;;;4964911;29;19919;-78
2022/11/20 02:17:30;;;;;;;;;;;;;;;;;;4963389;29;19925;-80
2022/11/20 02:19:55;;;;;;;;;;;;;;;;;;4955902;29;19939;-80
2022/11/20 02:22:20;;;;;;;;;;;;;;;;;;4955661;29;20313;-79
2022/11/20 02:24:46;;;;;;;;;;;;;;;;;;4955458;29;19914;-78
2022/11/20 02:27:14;;;;;;;;;;;;;;;;;;4955596;29;20409;-80
2022/11/20 02:29:40;;;;;;;;;;;;;;;;;;4957786;29;19934;-80
2022/11/20 02:32:05;;;;;;;;;;;;;;;;;;4957958;29;19915;-80
2022/11/20 02:34:30;;;;;;;;;;;;;;;;;;4958945;29;19915;-79
2022/11/20 02:36:56;;;;;;;;;;;;;;;;;;4956699;29;19922;-78
2022/11/20 02:39:21;;;;;;;;;;;;;;;;;;4939033;29;19970;-78
2022/11/20 02:41:47;;;;;;;;;;;;;;;;;;4956339;29;19920;-79
2022/11/20 02:44:12;;;;;;;;;;;;;;;;;;4955074;29;20274;-79
2022/11/20 02:46:37;;;;;;;;;;;;;;;;;;4955665;29;19942;-79
2022/11/20 02:49:03;;;;;;;;;;;;;;;;;;4955842;29;20382;-79
2022/11/20 02:51:28;;;;;;;;;;;;;;;;;;4955009;29;19926;-79
2022/11/20 02:53:53;;;;;;;;;;;;;;;;;;4955763;29;19918;-79
2022/11/20 02:56:19;;;;;;;;;;;;;;;;;;4954488;28;20379;-78
2022/11/20 02:58:44;;;;;;;;;;;;;;;;;;4956436;29;20016;-78
2022/11/20 03:01:10;;;;;;;;;;;;;;;;;;4956204;29;19915;-78
2022/11/20 03:03:35;;;;;;;;;;;;;;;;;;4955763;29;19918;-81
2022/11/20 03:06:00;;;;;;;;;;;;;;;;;;4956195;29;20420;-78
2022/11/20 03:08:26;;;;;;;;;;;;;;;;;;4955974;29;20416;-77
2022/11/20 03:10:51;;;;;;;;;;;;;;;;;;4955723;29;19915;-79
2022/11/20 03:13:16;;;;;;;;;;;;;;;;;;4938361;29;19925;-79
2022/11/20 03:15:42;;;;;;;;;;;;;;;;;;4956104;29;19950;-79
2022/11/20 03:18:07;;;;;;;;;;;;;;;;;;4956437;29;20001;-77
2022/11/20 03:20:32;;;;;;;;;;;;;;;;;;4954372;29;20005;-80
2022/11/20 03:22:58;;;;;;;;;;;;;;;;;;4955327;29;19921;-79
2022/11/20 03:25:24;;;;;;;;;;;;;;;;;;4955053;28;20001;-79
2022/11/20 03:27:49;;;;;;;;;;;;;;;;;;4954293;29;19915;-78
2022/11/20 03:30:15;;;;;;;;;;;;;;;;;;4955298;29;19914;-79
2022/11/20 03:32:40;;;;;;;;;;;;;;;;;;4955303;28;19918;-77
2022/11/20 03:35:05;;;;;;;;;;;;;;;;;;4955566;29;20387;-78
2022/11/20 03:37:31;;;;;;;;;;;;;;;;;;4955979;29;19978;-78
2022/11/20 03:39:56;;;;;;;;;;;;;;;;;;4955752;29;19966;-79
2022/11/20 03:45:05;;;;;;;;;;;;;;;;;;4957523;29;19915;-79
2022/11/20 03:47:31;;;;;;;;;;;;;;;;;;4957594;29;19937;-77
2022/11/20 03:49:56;;;;;;;;;;;;;;;;;;4957179;29;19915;-78
2022/11/20 03:52:21;;;;;;;;;;;;;;;;;;4954769;29;19914;-79
2022/11/20 03:54:47;;;;;;;;;;;;;;;;;;4954603;29;19922;-79
2022/11/20 03:57:12;;;;;;;;;;;;;;;;;;4953515;29;19915;-78
2022/11/20 03:59:37;;;;;;;;;;;;;;;;;;4953505;29;19914;-80
2022/11/20 04:02:03;;;;;;;;;;;;;;;;;;4954495;29;19914;-80
2022/11/20 04:04:28;;;;;;;;;;;;;;;;;;4953072;29;20461;-79
2022/11/20 04:06:53;;;;;;;;;;;;;;;;;;4953234;29;20441;-79
2022/11/20 04:09:19;;;;;;;;;;;;;;;;;;4939458;29;19915;-79
2022/11/20 04:11:44;;;;;;;;;;;;;;;;;;4958798;29;19949;-79
2022/11/20 04:14:10;;;;;;;;;;;;;;;;;;4958493;29;19966;-79
2022/11/20 04:16:35;;;;;;;;;;;;;;;;;;4957694;29;20363;-78
2022/11/20 04:19:00;;;;;;;;;;;;;;;;;;4958576;29;20002;-78
2022/11/20 04:21:26;;;;;;;;;;;;;;;;;;4957372;29;19942;-79
2022/11/20 04:23:52;;;;;;;;;;;;;;;;;;4958937;29;19918;-78
2022/11/20 04:26:17;;;;;;;;;;;;;;;;;;4958140;28;19919;-79
2022/11/20 04:28:43;;;;;;;;;;;;;;;;;;4958261;29;19921;-79
2022/11/20 04:31:08;;;;;;;;;;;;;;;;;;4958195;29;20334;-79
2022/11/20 04:33:34;;;;;;;;;;;;;;;;;;4958052;29;19966;-78
2022/11/20 04:35:59;;;;;;;;;;;;;;;;;;4957951;29;19958;-80
2022/11/20 04:38:24;;;;;;;;;;;;;;;;;;4957078;29;20283;-79
2022/11/20 04:40:50;;;;;;;;;;;;;;;;;;4958239;29;20425;-80
2022/11/20 04:43:15;;;;;;;;;;;;;;;;;;4958227;29;19969;-80
2022/11/20 04:45:40;;;;;;;;;;;;;;;;;;4958123;29;20005;-79
2022/11/20 04:48:06;;;;;;;;;;;;;;;;;;4958455;29;20316;-80
2022/11/20 04:50:31;;;;;;;;;;;;;;;;;;4958272;29;19970;-79
2022/11/20 04:52:56;;;;;;;;;;;;;;;;;;4958667;29;19918;-78
2022/11/20 04:55:22;;;;;;;;;;;;;;;;;;4943699;29;20375;-80
2022/11/20 04:57:47;;;;;;;;;;;;;;;;;;4959322;29;19914;-78
2022/11/20 05:00:13;;;;;;;;;;;;;;;;;;4958455;29;19975;-80
2022/11/20 05:02:38;;;;;;;;;;;;;;;;;;4957431;28;19914;-79
2022/11/20 05:05:03;;;;;;;;;;;;;;;;;;4957869;29;19915;-79
2022/11/20 05:07:29;;;;;;;;;;;;;;;;;;4956703;29;19960;-79
2022/11/20 05:09:54;;;;;;;;;;;;;;;;;;4956292;29;19914;-79
2022/11/20 05:12:19;;;;;;;;;;;;;;;;;;4957158;29;19920;-80
2022/11/20 05:14:45;;;;;;;;;;;;;;;;;;4956864;29;19937;-79
2022/11/20 05:17:10;;;;;;;;;;;;;;;;;;4957007;29;20404;-79
2022/11/20 05:19:35;;;;;;;;;;;;;;;;;;4956746;28;19922;-79
2022/11/20 05:22:01;;;;;;;;;;;;;;;;;;4957306;29;20034;-78
2022/11/20 05:24:26;;;;;;;;;;;;;;;;;;4956011;29;19915;-79
2022/11/20 05:26:52;;;;;;;;;;;;;;;;;;4957266;29;20428;-79
2022/11/20 05:29:17;;;;;;;;;;;;;;;;;;4958074;29;19915;-78
2022/11/20 05:31:42;;;;;;;;;;;;;;;;;;4956424;29;19921;-79
2022/11/20 05:34:08;;;;;;;;;;;;;;;;;;4956216;29;19919;-78
2022/11/20 05:36:33;;;;;;;;;;;;;;;;;;4956860;29;20009;-80
2022/11/20 05:38:59;;;;;;;;;;;;;;;;;;4956673;29;20010;-79
2022/11/20 05:41:24;;;;;;;;;;;;;;;;;;4957760;29;19914;-79
2022/11/20 05:43:50;;;;;;;;;;;;;;;;;;4956428;29;20442;-79
2022/11/20 05:46:15;;;;;;;;;;;;;;;;;;4957212;29;19914;-79
2022/11/20 05:48:40;;;;;;;;;;;;;;;;;;4956776;29;19962;-78
2022/11/20 05:51:06;;;;;;;;;;;;;;;;;;4956664;29;20382;-78
2022/11/20 05:53:31;;;;;;;;;;;;;;;;;;4940356;29;20326;-78
2022/11/20 05:55:56;;;;;;;;;;;;;;;;;;4958390;29;19918;-78
2022/11/20 05:58:22;;;;;;;;;;;;;;;;;;4958069;29;19914;-78
2022/11/20 06:00:47;;;;;;;;;;;;;;;;;;4958865;29;19921;-78
2022/11/20 06:03:13;;;;;;;;;;;;;;;;;;4959793;29;19922;-79
2022/11/20 06:05:38;;;;;;;;;;;;;;;;;;4961242;29;20264;-79
2022/11/20 06:08:03;;;;;;;;;;;;;;;;;;4960700;29;19915;-77
2022/11/20 06:10:29;;;;;;;;;;;;;;;;;;4959074;29;20444;-78
2022/11/20 06:12:54;;;;;;;;;;;;;;;;;;4958715;29;19921;-78
2022/11/20 06:15:19;;;;;;;;;;;;;;;;;;4959264;29;20378;-79
2022/11/20 06:17:45;;;;;;;;;;;;;;;;;;4960062;29;19924;-78
2022/11/20 06:20:10;;;;;;;;;;;;;;;;;;4959031;29;20382;-78
2022/11/20 06:22:35;;;;;;;;;;;;;;;;;;4959931;29;19922;-77
2022/11/20 06:25:01;;;;;;;;;;;;;;;;;;4958669;29;20338;-78
2022/11/20 06:27:26;;;;;;;;;;;;;;;;;;4958367;29;19915;-78
2022/11/20 06:29:51;;;;;;;;;;;;;;;;;;4959472;29;19914;-78
2022/11/20 06:32:17;;;;;;;;;;;;;;;;;;4957559;28;20374;-77
2022/11/20 06:34:42;;;;;;;;;;;;;;;;;;4960224;29;19926;-77
2022/11/20 06:37:08;;;;;;;;;;;;;;;;;;4960068;29;19919;-79
2022/11/20 06:39:33;;;;;;;;;;;;;;;;;;4958523;29;20363;-77
2022/11/20 06:41:58;;;;;;;;;;;;;;;;;;4956964;29;20015;-77
2022/11/20 06:44:24;;;;;;;;;;;;;;;;;;4956410;29;19998;-78
2022/11/20 06:46:49;;;;;;;;;;;;;;;;;;4941773;29;20357;-78
2022/11/20 06:49:15;;;;;;;;;;;;;;;;;;4960224;29;20299;-79
2022/11/20 06:51:40;;;;;;;;;;;;;;;;;;4959991;29;19952;-78
2022/11/20 06:54:05;;;;;;;;;;;;;;;;;;4960729;29;20338;-78
2022/11/20 06:56:31;;;;;;;;;;;;;;;;;;4962261;29;19915;-78
2022/11/20 06:58:56;;;;;;;;;;;;;;;;;;4962403;29;19942;-77
2022/11/20 07:01:21;;;;;;;;;;;;;;;;;;4960425;29;19923;-78
2022/11/20 07:03:47;;;;;;;;;;;;;;;;;;4960314;29;19967;-78
2022/11/20 07:06:12;;;;;;;;;;;;;;;;;;4958641;29;19915;-77
2022/11/20 07:08:38;;;;;;;;;;;;;;;;;;4957348;29;19917;-78
2022/11/20 07:11:03;;;;;;;;;;;;;;;;;;4943379;29;19915;-77
2022/11/20 07:13:28;;;;;;;;;;;;;;;;;;4959661;29;19918;-78
2022/11/20 07:15:54;;;;;;;;;;;;;;;;;;4959209;29;20413;-78
2022/11/20 07:18:19;;;;;;;;;;;;;;;;;;4957248;29;19922;-78
2022/11/20 07:20:44;;;;;;;;;;;;;;;;;;4958433;29;19953;-78
2022/11/20 07:23:10;;;;;;;;;;;;;;;;;;4954905;29;19918;-78
2022/11/20 07:25:35;;;;;;;;;;;;;;;;;;4955578;29;21006;-78
2022/11/20 07:28:01;;;;;;;;;;;;;;;;;;4955702;29;19926;-79
2022/11/20 07:30:26;;;;;;;;;;;;;;;;;;4953928;29;19915;-78
2022/11/20 07:32:51;;;;;;;;;;;;;;;;;;4953597;29;19970;-79
2022/11/20 07:35:17;;;;;;;;;;;;;;;;;;4954507;29;19951;-78
2022/11/20 07:37:42;;;;;;;;;;;;;;;;;;4955145;29;20005;-79
2022/11/20 07:40:07;;;;;;;;;;;;;;;;;;4955247;29;19919;-78
2022/11/20 07:42:33;;;;;;;;;;;;;;;;;;4954597;28;20416;-78
2022/11/20 07:44:59;;;;;;;;;;;;;;;;;;4942843;29;19915;-78
2022/11/20 07:47:24;;;;;;;;;;;;;;;;;;4958995;29;20433;-79
2022/11/20 07:49:50;;;;;;;;;;;;;;;;;;4958342;29;19918;-77
2022/11/20 07:52:15;;;;;;;;;;;;;;;;;;4959628;29;20382;-77
2022/11/20 07:54:40;;;;;;;;;;;;;;;;;;4960244;29;19957;-79
2022/11/20 07:57:06;;;;;;;;;;;;;;;;;;4959554;29;20413;-78
2022/11/20 07:59:31;;;;;;;;;;;;;;;;;;4959252;29;19915;-77
2022/11/20 08:01:56;;;;;;;;;;;;;;;;;;4959575;29;20283;-78
2022/11/20 08:04:23;;;;;;;;;;;;;;;;;;4958787;28;19938;-78
2022/11/20 08:06:48;;;;;;;;;;;;;;;;;;4958723;29;19915;-79
2022/11/20 08:09:13;;;;;;;;;;;;;;;;;;4960625;29;19915;-79
2022/11/20 08:14:27;;;;;;;;;;;;;;;;;;4949299;29;19926;-78
2022/11/20 08:16:53;;;;;;;;;;;;;;;;;;4958837;29;19911;-78
2022/11/20 08:19:19;;;;;;;;;;;;;;;;;;4959515;28;19969;-79
2022/11/20 08:21:44;;;;;;;;;;;;;;;;;;4962277;29;19915;-79
2022/11/20 08:24:09;;;;;;;;;;;;;;;;;;4960242;29;19914;-79
2022/11/20 08:26:35;;;;;;;;;;;;;;;;;;4957507;29;19918;-79
2022/11/20 08:29:00;;;;;;;;;;;;;;;;;;4959817;29;19922;-78
2022/11/20 08:31:26;;;;;;;;;;;;;;;;;;4960604;29;20302;-79
2022/11/20 08:33:51;;;;;;;;;;;;;;;;;;4959253;29;19918;-79
2022/11/20 08:36:16;;;;;;;;;;;;;;;;;;4957347;29;19936;-78
2022/11/20 08:38:42;;;;;;;;;;;;;;;;;;4957515;29;19911;-79
2022/11/20 08:41:31;;;;;;;;;;;;;;;;;;4958345;29;19970;-78
2022/11/20 08:43:56;;;;;;;;;;;;;;;;;;4960693;28;19918;-79
2022/11/20 08:46:22;;;;;;;;;;;;;;;;;;4959869;29;19914;-77
2022/11/20 08:48:47;;;;;;;;;;;;;;;;;;4959859;29;19914;-79
2022/11/20 08:51:13;;;;;;;;;;;;;;;;;;4958833;29;19918;-78
2022/11/20 08:53:38;;;;;;;;;;;;;;;;;;4958360;28;20393;-78
2022/11/20 08:56:04;;;;;;;;;;;;;;;;;;4956827;29;19914;-78
2022/11/20 08:58:29;;;;;;;;;;;;;;;;;;4958462;29;19958;-79
2022/11/20 09:00:54;;;;;;;;;;;;;;;;;;4959613;29;19921;-79
2022/11/20 09:03:20;;;;;;;;;;;;;;;;;;4958932;29;19919;-79
2022/11/20 09:05:45;;;;;;;;;;;;;;;;;;4957705;29;19965;-78
2022/11/20 09:08:11;;;;;;;;;;;;;;;;;;4957294;29;19973;-77
2022/11/20 09:10:36;;;;;;;;;;;;;;;;;;4942352;29;20255;-79
2022/11/20 09:13:01;;;;;;;;;;;;;;;;;;4959615;29;19915;-79
2022/11/20 09:15:27;;;;;;;;;;;;;;;;;;4962687;28;19915;-79
2022/11/20 09:17:52;;;;;;;;;;;;;;;;;;4926789;29;19911;-80
2022/11/20 09:20:18;;;;;;;;;;;;;;;;;;4943617;29;19914;-80
2022/11/20 09:22:44;;;;;;;;;;;;;;;;;;4959114;28;19969;-81
2022/11/20 09:25:09;;;;;;;;;;;;;;;;;;4941576;29;19925;-81
2022/11/20 09:27:35;;;;;;;;;;;;;;;;;;4958340;29;19914;-81
2022/11/20 09:30:00;;;;;;;;;;;;;;;;;;4961613;28;19923;-80
2022/11/20 09:32:26;;;;;;;;;;;;;;;;;;4960520;29;19914;-81
2022/11/20 09:34:51;;;;;;;;;;;;;;;;;;4958565;29;19990;-81
2022/11/20 09:37:17;;;;;;;;;;;;;;;;;;4958567;29;19962;-79
2022/11/20 09:39:43;;;;;;;;;;;;;;;;;;4962785;28;19899;-83
2022/11/20 09:42:08;;;;;;;;;;;;;;;;;;4961348;28;19925;-81
2022/11/20 09:44:33;;;;;;;;;;;;;;;;;;4967116;29;19915;-80
2022/11/20 09:46:59;;;;;;;;;;;;;;;;;;4959599;29;19958;-78
2022/11/20 09:49:25;;;;;;;;;;;;;;;;;;4943725;29;19914;-82
2022/11/20 09:51:50;;;;;;;;;;;;;;;;;;4969118;28;19985;-82
2022/11/20 09:54:16;;;;;;;;;;;;;;;;;;4959609;29;19919;-79
2022/11/20 09:56:41;;;;;;;;;;;;;;;;;;4959428;29;20374;-79
2022/11/20 09:59:06;;;;;;;;;;;;;;;;;;4962199;29;19915;-80
2022/11/20 10:01:35;;;;;;;;;;;;;;;;;;4965420;29;19969;-80
2022/11/20 10:04:01;;;;;;;;;;;;;;;;;;4960045;28;19914;-81
2022/11/20 10:06:26;;;;;;;;;;;;;;;;;;4958828;28;19914;-81
2022/11/20 10:08:51;;;;;;;;;;;;;;;;;;4959425;29;20287;-81
2022/11/20 10:11:17;;;;;;;;;;;;;;;;;;4963668;29;20382;-82
2022/11/20 10:13:42;;;;;;;;;;;;;;;;;;4971477;29;19922;-82
2022/11/20 10:16:08;;;;;;;;;;;;;;;;;;4977865;29;19950;-83
2022/11/20 10:18:33;;;;;;;;;;;;;;;;;;4963672;29;19910;-80
2022/11/20 10:20:58;;;;;;;;;;;;;;;;;;4959079;29;19914;-80
2022/11/20 10:23:24;;;;;;;;;;;;;;;;;;4958937;29;19922;-81
2022/11/20 10:25:49;;;;;;;;;;;;;;;;;;4959235;29;19919;-80
2022/11/20 10:28:14;;;;;;;;;;;;;;;;;;4962833;28;19969;-81
2022/11/20 10:30:40;;;;;;;;;;;;;;;;;;4960405;29;19925;-80
2022/11/20 10:33:05;;;;;;;;;;;;;;;;;;4959302;29;19921;-81
2022/11/20 10:35:31;;;;;;;;;;;;;;;;;;4940955;29;20378;-81
2022/11/20 10:37:56;;;;;;;;;;;;;;;;;;4959151;29;19922;-80
2022/11/20 10:40:22;;;;;;;;;;;;;;;;;;4960286;29;19934;-81
2022/11/20 10:42:47;;;;;;;;;;;;;;;;;;4960288;29;20294;-81
2022/11/20 10:45:12;;;;;;;;;;;;;;;;;;4960288;29;19914;-80
2022/11/20 10:47:38;;;;;;;;;;;;;;;;;;4958781;29;20368;-80
2022/11/20 10:50:03;;;;;;;;;;;;;;;;;;4958805;28;19917;-81
2022/11/20 10:52:29;;;;;;;;;;;;;;;;;;4959298;29;19920;-79
2022/11/20 10:54:54;;;;;;;;;;;;;;;;;;4958990;29;19980;-80
2022/11/20 10:57:20;;;;;;;;;;;;;;;;;;4957637;29;19914;-81
2022/11/20 10:59:45;;;;;;;;;;;;;;;;;;4958087;29;19921;-81
2022/11/20 11:02:11;;;;;;;;;;;;;;;;;;4960023;29;20029;-81
2022/11/20 11:04:36;;;;;;;;;;;;;;;;;;4958843;29;19921;-80
2022/11/20 11:07:01;;;;;;;;;;;;;;;;;;4958258;29;19914;-80
2022/11/20 11:09:27;;;;;;;;;;;;;;;;;;4959036;29;19965;-80
2022/11/20 11:11:52;;;;;;;;;;;;;;;;;;4957052;29;19978;-80
2022/11/20 11:14:18;;;;;;;;;;;;;;;;;;4958293;29;19949;-80
2022/11/20 11:16:44;;;;;;;;;;;;;;;;;;4959908;28;19915;-80
2022/11/20 11:19:09;;;;;;;;;;;;;;;;;;4957497;29;19970;-80
2022/11/20 11:21:35;;;;;;;;;;;;;;;;;;4957572;29;20402;-80
2022/11/20 11:24:01;;;;;;;;;;;;;;;;;;4957690;29;20332;-80
2022/11/20 11:26:27;;;;;;;;;;;;;;;;;;4940580;29;19969;-80
2022/11/20 11:28:52;;;;;;;;;;;;;;;;;;4958415;28;19958;-80
2022/11/20 11:31:17;;;;;;;;;;;;;;;;;;4956368;29;20450;-79
2022/11/20 11:33:43;;;;;;;;;;;;;;;;;;4954230;29;19922;-80
2022/11/20 11:36:08;;;;;;;;;;;;;;;;;;4955976;29;19946;-80
2022/11/20 11:38:34;;;;;;;;;;;;;;;;;;4956971;28;19915;-79
2022/11/20 11:41:00;;;;;;;;;;;;;;;;;;4955406;29;19914;-80
2022/11/20 11:46:09;;;;;;;;;;;;;;;;;;4956361;29;19921;-80
2022/11/20 11:48:35;;;;;;;;;;;;;;;;;;4955902;29;19914;-80
2022/11/20 11:51:00;;;;;;;;;;;;;;;;;;4955116;29;19914;-80
2022/11/20 11:53:26;;;;;;;;;;;;;;;;;;4954990;29;20434;-81
2022/11/20 11:55:51;;;;;;;;;;;;;;;;;;4956720;29;19921;-80
2022/11/20 11:58:16;;;;;;;;;;;;;;;;;;4956385;29;20017;-79
2022/11/20 12:00:42;;;;;;;;;;;;;;;;;;4956037;29;20400;-80
2022/11/20 12:03:07;;;;;;;;;;;;;;;;;;4957397;29;19915;-80
2022/11/20 12:05:32;;;;;;;;;;;;;;;;;;4955844;29;19942;-81
2022/11/20 12:07:58;;;;;;;;;;;;;;;;;;4958861;29;20343;-81
2022/11/20 12:10:23;;;;;;;;;;;;;;;;;;4958900;29;19922;-81
2022/11/20 12:12:49;;;;;;;;;;;;;;;;;;4956396;29;19911;-83
2022/11/20 12:15:14;;;;;;;;;;;;;;;;;;4926954;29;19919;-81
2022/11/20 12:17:39;;;;;;;;;;;;;;;;;;4955871;29;20449;-81
2022/11/20 12:20:05;;;;;;;;;;;;;;;;;;4953735;29;19915;-81
2022/11/20 12:22:30;;;;;;;;;;;;;;;;;;4955107;29;19985;-81
2022/11/20 12:24:56;;;;;;;;;;;;;;;;;;4953876;29;19915;-81
2022/11/20 12:27:21;;;;;;;;;;;;;;;;;;4955036;29;20263;-80
2022/11/20 12:29:46;;;;;;;;;;;;;;;;;;4954779;28;19915;-81
2022/11/20 12:32:12;;;;;;;;;;;;;;;;;;4958893;29;19919;-80
2022/11/20 12:34:37;;;;;;;;;;;;;;;;;;4959599;29;19960;-79
2022/11/20 12:37:03;;;;;;;;;;;;;;;;;;4975144;29;19981;-83
2022/11/20 12:39:35;;;;;;;;;;;;;;;;;;4936040;29;19914;-82
2022/11/20 12:47:29;;;;;;;;;;;;;;;;;;4965758;29;19918;-82
2022/11/20 12:49:54;;;;;;;;;;;;;;;;;;4962083;29;19941;-81
2022/11/20 12:52:20;;;;;;;;;;;;;;;;;;4960305;29;20382;-80
2022/11/20 12:54:46;;;;;;;;;;;;;;;;;;4959899;28;19919;-81
2022/11/20 12:57:11;;;;;;;;;;;;;;;;;;4959744;28;19914;-81
2022/11/20 12:59:37;;;;;;;;;;;;;;;;;;4959874;29;19910;-80
2022/11/20 13:02:02;;;;;;;;;;;;;;;;;;4961293;29;19914;-81
2022/11/20 13:04:27;;;;;;;;;;;;;;;;;;4962171;29;19921;-81
2022/11/20 13:06:53;;;;;;;;;;;;;;;;;;4962858;29;19939;-81
2022/11/20 13:09:18;;;;;;;;;;;;;;;;;;4946966;29;20282;-81
2022/11/20 13:11:44;;;;;;;;;;;;;;;;;;4946532;29;19914;-81
2022/11/20 13:14:09;;;;;;;;;;;;;;;;;;4960010;29;20404;-80
2022/11/20 13:16:35;;;;;;;;;;;;;;;;;;4962115;29;19914;-81
2022/11/20 13:19:00;;;;;;;;;;;;;;;;;;4961797;29;19973;-82
2022/11/20 13:21:25;;;;;;;;;;;;;;;;;;4961382;29;19914;-80
2022/11/20 13:23:51;;;;;;;;;;;;;;;;;;4944188;29;19994;-81
2022/11/20 13:26:16;;;;;;;;;;;;;;;;;;4944306;23;19927;-81
2022/11/20 13:28:42;;;;;;;;;;;;;;;;;;4939177;29;20387;-80
2022/11/20 13:31:07;;;;;;;;;;;;;;;;;;4941126;29;20271;-81
2022/11/20 13:33:33;;;;;;;;;;;;;;;;;;4938844;29;20298;-81
2022/11/20 13:35:58;;;;;;;;;;;;;;;;;;4938493;29;20282;-81
2022/11/20 13:38:24;;;;;;;;;;;;;;;;;;4938948;29;19976;-81
2022/11/20 13:40:50;;;;;;;;;;;;;;;;;;4939355;29;19915;-80
2022/11/20 13:43:15;;;;;;;;;;;;;;;;;;4922548;29;19921;-81
2022/11/20 13:45:41;;;;;;;;;;;;;;;;;;4939013;29;19915;-80
2022/11/20 13:48:06;;;;;;;;;;;;;;;;;;4924012;29;19915;-80
2022/11/20 13:50:32;;;;;;;;;;;;;;;;;;4941198;29;19915;-81
2022/11/20 13:52:57;;;;;;;;;;;;;;;;;;4956091;29;19915;-80
2022/11/20 13:55:23;;;;;;;;;;;;;;;;;;4940402;29;19997;-80
2022/11/20 13:57:49;;;;;;;;;;;;;;;;;;4911853;29;19919;-80
2022/11/20 14:00:14;;;;;;;;;;;;;;;;;;4908056;29;20391;-81
2022/11/20 14:02:40;;;;;;;;;;;;;;;;;;4906337;29;19915;-80
2022/11/20 14:05:05;;;;;;;;;;;;;;;;;;4923236;29;20319;-80
2022/11/20 14:07:30;;;;;;;;;;;;;;;;;;4939879;29;19915;-80
2022/11/20 14:09:56;;;;;;;;;;;;;;;;;;4906994;29;20375;-80
2022/11/20 14:12:22;;;;;;;;;;;;;;;;;;4922928;29;20386;-80
2022/11/20 14:14:47;;;;;;;;;;;;;;;;;;4934124;29;19955;-80
2022/11/20 14:17:13;;;;;;;;;;;;;;;;;;4889101;29;19915;-78
2022/11/20 14:19:38;;;;;;;;;;;;;;;;;;4922399;29;19921;-78
2022/11/20 14:22:03;;;;;;;;;;;;;;;;;;4905400;29;19915;-80
2022/11/20 14:24:29;;;;;;;;;;;;;;;;;;4921439;29;20002;-80
2022/11/20 14:26:55;;;;;;;;;;;;;;;;;;4902737;29;19919;-76
2022/11/20 14:29:20;;;;;;;;;;;;;;;;;;4903639;29;19919;-78
2022/11/20 14:31:45;;;;;;;;;;;;;;;;;;4886642;29;19915;-78
2022/11/20 14:34:11;;;;;;;;;;;;;;;;;;4904053;29;19974;-79
2022/11/20 14:36:37;;;;;;;;;;;;;;;;;;4906329;29;19946;-78
2022/11/20 14:39:02;;;;;;;;;;;;;;;;;;4904417;29;19915;-78
2022/11/20 14:41:29;;;;;;;;;;;;;;;;;;4902658;29;19919;-78
2022/11/20 14:43:54;;;;;;;;;;;;;;;;;;4921770;29;19915;-77
2022/11/20 14:46:20;;;;;;;;;;;;;;;;;;4906219;29;20375;-78
2022/11/20 14:48:46;;;;;;;;;;;;;;;;;;4922393;29;19911;-78
2022/11/20 14:51:14;;;;;;;;;;;;;;;;;;4940952;29;19914;-78
2022/11/20 14:53:42;;;;;;;;;;;;;;;;;;4955690;28;20305;-79
2022/11/20 14:56:08;;;;;;;;;;;;;;;;;;4926302;29;19915;-79
2022/11/20 14:58:33;;;;;;;;;;;;;;;;;;4942594;29;19922;-79
2022/11/20 15:00:59;;;;;;;;;;;;;;;;;;4940437;29;20282;-78
2022/11/20 15:03:24;;;;;;;;;;;;;;;;;;4936972;29;20009;-77
2022/11/20 15:05:50;;;;;;;;;;;;;;;;;;4929663;28;19980;-82
2022/11/20 15:08:16;;;;;;;;;;;;;;;;;;4958746;28;19970;-79
2022/11/20 15:10:41;;;;;;;;;;;;;;;;;;4937449;29;20334;-77
2022/11/20 15:13:07;;;;;;;;;;;;;;;;;;4937960;29;19915;-77
2022/11/20 15:15:32;;;;;;;;;;;;;;;;;;4937929;29;20481;-77
2022/11/20 15:17:58;;;;;;;;;;;;;;;;;;4921615;29;20393;-77
2022/11/20 15:20:23;;;;;;;;;;;;;;;;;;4963754;29;20371;-78
2022/11/20 15:22:49;;;;;;;;;;;;;;;;;;4922604;29;20374;-77
2022/11/20 15:25:14;;;;;;;;;;;;;;;;;;4921902;29;20314;-78
2022/11/20 15:27:40;;;;;;;;;;;;;;;;;;4938832;29;20422;-78
2022/11/20 15:30:05;;;;;;;;;;;;;;;;;;4939092;29;19915;-77
2022/11/20 15:36:03;;;;;;;;;;;;;;;;;;4934588;29;20010;-78
2022/11/20 15:38:28;;;;;;;;;;;;;;;;;;4937451;29;20398;-77
2022/11/20 15:40:54;;;;;;;;;;;;;;;;;;4922249;29;19925;-75
2022/11/20 15:43:20;;;;;;;;;;;;;;;;;;4938667;29;19915;-77
2022/11/20 15:45:45;;;;;;;;;;;;;;;;;;4921979;29;20385;-77
2022/11/20 15:48:11;;;;;;;;;;;;;;;;;;4922297;29;19918;-76
2022/11/20 15:50:36;;;;;;;;;;;;;;;;;;4906809;29;19922;-77
2022/11/20 15:53:02;;;;;;;;;;;;;;;;;;4939811;29;20318;-78
2022/11/20 15:55:27;;;;;;;;;;;;;;;;;;4939678;29;19923;-77
2022/11/20 15:57:53;;;;;;;;;;;;;;;;;;4921716;29;20414;-76
2022/11/20 16:00:18;;;;;;;;;;;;;;;;;;4939272;29;20006;-77
2022/11/20 16:02:44;;;;;;;;;;;;;;;;;;4923706;29;19993;-77
2022/11/20 16:05:09;;;;;;;;;;;;;;;;;;4925394;29;19937;-77
2022/11/20 16:07:35;;;;;;;;;;;;;;;;;;4926750;29;19962;-77
2022/11/20 16:10:01;;;;;;;;;;;;;;;;;;4942886;29;20381;-77
2022/11/20 16:17:55;;;;;;;;;;;;;;;;;;4943525;29;19962;-77
2022/11/20 16:20:20;;;;;;;;;;;;;;;;;;4926354;29;19918;-77
2022/11/20 16:22:46;;;;;;;;;;;;;;;;;;4941473;29;19915;-78
2022/11/20 16:25:11;;;;;;;;;;;;;;;;;;4942356;29;20378;-76
2022/11/20 16:27:37;;;;;;;;;;;;;;;;;;4926070;29;20096;-76
2022/11/20 16:30:02;;;;;;;;;;;;;;;;;;4925300;29;20058;-77
2022/11/20 16:32:28;;;;;;;;;;;;;;;;;;4940704;29;20291;-78
2022/11/20 16:34:56;;;;;;;;;;;;;;;;;;4925965;29;19919;-77
2022/11/20 16:37:21;;;;;;;;;;;;;;;;;;4959865;29;20289;-77
2022/11/20 16:39:47;;;;;;;;;;;;;;;;;;4952196;29;19938;-77
2022/11/20 16:42:12;;;;;;;;;;;;;;;;;;4941941;29;19915;-77
2022/11/20 16:44:38;;;;;;;;;;;;;;;;;;4940842;29;20306;-76
2022/11/20 16:47:03;;;;;;;;;;;;;;;;;;4941828;29;19920;-77
2022/11/20 16:49:29;;;;;;;;;;;;;;;;;;4925254;29;19919;-76
2022/11/20 16:51:55;;;;;;;;;;;;;;;;;;4949757;29;19969;-76
2022/11/20 16:54:20;;;;;;;;;;;;;;;;;;4930262;29;19924;-77
2022/11/20 16:56:50;;;;;;;;;;;;;;;;;;4959483;28;19921;-77
2022/11/20 16:59:16;;;;;;;;;;;;;;;;;;4927958;29;20391;-77
2022/11/20 17:01:42;;;;;;;;;;;;;;;;;;4954047;29;19921;-81